Time;durP1;ratioP1;P1;durP2;ratioP2;P2;SDS_P1;SDS_P2;PMS_P1;PMS_P2;Temp;Humidity;BMP_temperature;BMP_pressure;BME280_temperature;BME280_humidity;BME280_pressure;Samples;Min_cycle;Max_cycle;Signal;HPM_P1;HPM_P2
2022/11/13 00:01:55;;;;;;;;;;;;;;;;;;5053503;28;19912;-75
2022/11/13 00:04:21;;;;;;;;;;;;;;;;;;5054681;28;20311;-79
2022/11/13 00:06:47;;;;;;;;;;;;;;;;;;5053899;28;19909;-80
2022/11/13 00:09:13;;;;;;;;;;;;;;;;;;5053658;28;20250;-80
2022/11/13 00:11:39;;;;;;;;;;;;;;;;;;5054381;28;19920;-79
2022/11/13 00:14:04;;;;;;;;;;;;;;;;;;5053433;28;20293;-77
2022/11/13 00:16:30;;;;;;;;;;;;;;;;;;5054585;28;19909;-78
2022/11/13 00:18:56;;;;;;;;;;;;;;;;;;5054535;28;20365;-78
2022/11/13 00:21:22;;;;;;;;;;;;;;;;;;5054182;28;19916;-78
2022/11/13 00:23:48;;;;;;;;;;;;;;;;;;5054150;28;20004;-77
2022/11/13 00:26:14;;;;;;;;;;;;;;;;;;5053936;28;19921;-78
2022/11/13 00:28:40;;;;;;;;;;;;;;;;;;5055216;28;19909;-78
2022/11/13 00:31:06;;;;;;;;;;;;;;;;;;5054219;28;20365;-76
2022/11/13 00:33:32;;;;;;;;;;;;;;;;;;5054296;28;19962;-78
2022/11/13 00:35:58;;;;;;;;;;;;;;;;;;5053847;28;19916;-78
2022/11/13 00:38:23;;;;;;;;;;;;;;;;;;5055172;28;19910;-78
2022/11/13 00:40:49;;;;;;;;;;;;;;;;;;5055264;28;19913;-78
2022/11/13 00:43:15;;;;;;;;;;;;;;;;;;5054217;28;19959;-77
2022/11/13 00:45:41;;;;;;;;;;;;;;;;;;5055059;28;20004;-77
2022/11/13 00:48:07;;;;;;;;;;;;;;;;;;5053911;28;20373;-77
2022/11/13 00:50:33;;;;;;;;;;;;;;;;;;5055341;28;20277;-78
2022/11/13 00:52:59;;;;;;;;;;;;;;;;;;5053779;28;19919;-76
2022/11/13 00:55:25;;;;;;;;;;;;;;;;;;5052394;28;19956;-77
2022/11/13 00:57:50;;;;;;;;;;;;;;;;;;5055169;28;20358;-76
2022/11/13 01:00:16;;;;;;;;;;;;;;;;;;5054908;28;20031;-78
2022/11/13 01:02:42;;;;;;;;;;;;;;;;;;5055103;28;19915;-78
2022/11/13 01:05:08;;;;;;;;;;;;;;;;;;5055216;28;19913;-76
2022/11/13 01:07:34;;;;;;;;;;;;;;;;;;5053565;28;19912;-77
2022/11/13 01:10:00;;;;;;;;;;;;;;;;;;5053773;28;19913;-78
2022/11/13 01:12:26;;;;;;;;;;;;;;;;;;5053605;28;19912;-78
2022/11/13 01:14:52;;;;;;;;;;;;;;;;;;5054553;28;19908;-78
2022/11/13 01:17:18;;;;;;;;;;;;;;;;;;5053612;28;20388;-77
2022/11/13 01:19:44;;;;;;;;;;;;;;;;;;5054634;28;19920;-78
2022/11/13 01:22:09;;;;;;;;;;;;;;;;;;5053369;28;20011;-77
2022/11/13 01:24:35;;;;;;;;;;;;;;;;;;5053936;28;19958;-77
2022/11/13 01:27:01;;;;;;;;;;;;;;;;;;5057611;28;19936;-77
2022/11/13 01:29:27;;;;;;;;;;;;;;;;;;5059000;28;19915;-77
2022/11/13 01:31:53;;;;;;;;;;;;;;;;;;5058861;28;19909;-76
2022/11/13 01:34:19;;;;;;;;;;;;;;;;;;5058381;28;19928;-78
2022/11/13 01:36:45;;;;;;;;;;;;;;;;;;5058364;28;19963;-79
2022/11/13 01:39:11;;;;;;;;;;;;;;;;;;5057700;28;19908;-78
2022/11/13 01:41:36;;;;;;;;;;;;;;;;;;5057599;28;19913;-77
2022/11/13 01:44:02;;;;;;;;;;;;;;;;;;5057076;28;19916;-76
2022/11/13 01:46:28;;;;;;;;;;;;;;;;;;5057939;28;20003;-77
2022/11/13 01:48:54;;;;;;;;;;;;;;;;;;5059237;28;20399;-77
2022/11/13 01:51:20;;;;;;;;;;;;;;;;;;5059330;28;20269;-78
2022/11/13 01:53:46;;;;;;;;;;;;;;;;;;5060534;28;20324;-78
2022/11/13 01:56:12;;;;;;;;;;;;;;;;;;5058968;28;19916;-78
2022/11/13 01:58:38;;;;;;;;;;;;;;;;;;5057801;28;19908;-77
2022/11/13 02:01:04;;;;;;;;;;;;;;;;;;5056642;28;20343;-77
2022/11/13 02:03:30;;;;;;;;;;;;;;;;;;5056274;28;19909;-77
2022/11/13 02:05:55;;;;;;;;;;;;;;;;;;5057684;28;19931;-78
2022/11/13 02:08:22;;;;;;;;;;;;;;;;;;5057564;28;19924;-77
2022/11/13 02:10:48;;;;;;;;;;;;;;;;;;5057892;28;20335;-77
2022/11/13 02:13:13;;;;;;;;;;;;;;;;;;5057805;28;19991;-78
2022/11/13 02:15:39;;;;;;;;;;;;;;;;;;5056296;28;19909;-77
2022/11/13 02:18:05;;;;;;;;;;;;;;;;;;5055781;28;20392;-77
2022/11/13 02:20:31;;;;;;;;;;;;;;;;;;5056543;28;19967;-76
2022/11/13 02:22:57;;;;;;;;;;;;;;;;;;5057568;28;20404;-78
2022/11/13 02:25:23;;;;;;;;;;;;;;;;;;5055888;28;19931;-78
2022/11/13 02:27:49;;;;;;;;;;;;;;;;;;5057335;28;20384;-77
2022/11/13 02:30:15;;;;;;;;;;;;;;;;;;5055957;28;19909;-77
2022/11/13 02:32:41;;;;;;;;;;;;;;;;;;5056692;28;20297;-78
2022/11/13 02:35:07;;;;;;;;;;;;;;;;;;5055872;28;19909;-77
2022/11/13 02:37:32;;;;;;;;;;;;;;;;;;5055816;28;19913;-77
2022/11/13 02:39:58;;;;;;;;;;;;;;;;;;5056639;28;20019;-76
2022/11/13 02:42:24;;;;;;;;;;;;;;;;;;5056998;28;19999;-77
2022/11/13 02:44:50;;;;;;;;;;;;;;;;;;5055623;28;20258;-76
2022/11/13 02:47:16;;;;;;;;;;;;;;;;;;5056878;28;19909;-78
2022/11/13 02:49:42;;;;;;;;;;;;;;;;;;5056652;28;19999;-76
2022/11/13 02:52:08;;;;;;;;;;;;;;;;;;5055945;28;19908;-78
2022/11/13 02:54:34;;;;;;;;;;;;;;;;;;5055345;28;19909;-78
2022/11/13 02:57:00;;;;;;;;;;;;;;;;;;5056560;28;19909;-79
2022/11/13 02:59:25;;;;;;;;;;;;;;;;;;5056793;28;19916;-75
2022/11/13 03:01:51;;;;;;;;;;;;;;;;;;5055270;28;20273;-78
2022/11/13 03:04:17;;;;;;;;;;;;;;;;;;5055030;28;19909;-77
2022/11/13 03:06:43;;;;;;;;;;;;;;;;;;5056126;28;19962;-77
2022/11/13 03:09:09;;;;;;;;;;;;;;;;;;5056133;28;20011;-77
2022/11/13 03:11:35;;;;;;;;;;;;;;;;;;5054554;28;19908;-76
2022/11/13 03:14:01;;;;;;;;;;;;;;;;;;5055801;28;19909;-77
2022/11/13 03:16:27;;;;;;;;;;;;;;;;;;5056160;28;19909;-78
2022/11/13 03:18:53;;;;;;;;;;;;;;;;;;5055032;28;20562;-78
2022/11/13 03:21:18;;;;;;;;;;;;;;;;;;5054742;28;19916;-79
2022/11/13 03:23:44;;;;;;;;;;;;;;;;;;5056562;28;20292;-78
2022/11/13 03:26:10;;;;;;;;;;;;;;;;;;5056230;28;19962;-78
2022/11/13 03:28:36;;;;;;;;;;;;;;;;;;5056024;28;19908;-79
2022/11/13 03:31:02;;;;;;;;;;;;;;;;;;5056712;28;19909;-77
2022/11/13 03:33:28;;;;;;;;;;;;;;;;;;5055153;28;19954;-77
2022/11/13 03:35:54;;;;;;;;;;;;;;;;;;5055039;28;19962;-77
2022/11/13 03:38:20;;;;;;;;;;;;;;;;;;5054936;28;20384;-76
2022/11/13 03:40:46;;;;;;;;;;;;;;;;;;5056185;28;19913;-77
2022/11/13 03:43:11;;;;;;;;;;;;;;;;;;5056397;28;20023;-78
2022/11/13 03:45:37;;;;;;;;;;;;;;;;;;5055927;28;19960;-78
2022/11/13 03:48:03;;;;;;;;;;;;;;;;;;5054181;28;19909;-78
2022/11/13 03:50:29;;;;;;;;;;;;;;;;;;5054628;28;19913;-78
2022/11/13 03:52:55;;;;;;;;;;;;;;;;;;5054696;28;19909;-78
2022/11/13 03:55:21;;;;;;;;;;;;;;;;;;5055389;28;19912;-77
2022/11/13 03:57:47;;;;;;;;;;;;;;;;;;5055760;28;20456;-78
2022/11/13 04:00:13;;;;;;;;;;;;;;;;;;5055650;28;19913;-77
2022/11/13 04:02:38;;;;;;;;;;;;;;;;;;5055534;28;19936;-77
2022/11/13 04:05:04;;;;;;;;;;;;;;;;;;5054050;28;19916;-76
2022/11/13 04:07:30;;;;;;;;;;;;;;;;;;5054502;28;19909;-78
2022/11/13 04:09:56;;;;;;;;;;;;;;;;;;5055405;28;20270;-79
2022/11/13 04:12:22;;;;;;;;;;;;;;;;;;5055910;28;19909;-78
2022/11/13 04:14:48;;;;;;;;;;;;;;;;;;5054306;28;20368;-78
2022/11/13 04:17:14;;;;;;;;;;;;;;;;;;5054226;28;19954;-75
2022/11/13 04:19:40;;;;;;;;;;;;;;;;;;5054249;28;19909;-78
2022/11/13 04:22:05;;;;;;;;;;;;;;;;;;5055614;28;19909;-77
2022/11/13 04:24:31;;;;;;;;;;;;;;;;;;5054802;28;19912;-75
2022/11/13 04:26:57;;;;;;;;;;;;;;;;;;5088718;22;19928;-77
2022/11/13 04:29:23;;;;;;;;;;;;;;;;;;5071194;28;19916;-77
2022/11/13 04:31:49;;;;;;;;;;;;;;;;;;5072839;28;20393;-78
2022/11/13 04:34:15;;;;;;;;;;;;;;;;;;5072669;28;19909;-77
2022/11/13 04:36:41;;;;;;;;;;;;;;;;;;5072153;28;20257;-78
2022/11/13 04:39:07;;;;;;;;;;;;;;;;;;5072478;28;19915;-78
2022/11/13 04:44:17;;;;;;;;;;;;;;;;;;5073427;28;20011;-78
2022/11/13 04:46:43;;;;;;;;;;;;;;;;;;5071121;28;19940;-77
2022/11/13 04:49:09;;;;;;;;;;;;;;;;;;5072380;28;20335;-77
2022/11/13 04:51:35;;;;;;;;;;;;;;;;;;5072542;28;19935;-77
2022/11/13 04:54:01;;;;;;;;;;;;;;;;;;5072680;28;20007;-78
2022/11/13 04:56:26;;;;;;;;;;;;;;;;;;5071033;28;19970;-77
2022/11/13 04:58:52;;;;;;;;;;;;;;;;;;5071082;28;20003;-80
2022/11/13 05:01:18;;;;;;;;;;;;;;;;;;5076360;28;19912;-79
2022/11/13 05:03:44;;;;;;;;;;;;;;;;;;5075889;28;19908;-79
2022/11/13 05:06:10;;;;;;;;;;;;;;;;;;5075693;28;19909;-79
2022/11/13 05:08:36;;;;;;;;;;;;;;;;;;5075532;28;19908;-80
2022/11/13 05:11:02;;;;;;;;;;;;;;;;;;5075858;28;19999;-80
2022/11/13 05:13:28;;;;;;;;;;;;;;;;;;5075602;28;19974;-79
2022/11/13 05:15:54;;;;;;;;;;;;;;;;;;5075213;28;19931;-79
2022/11/13 05:18:19;;;;;;;;;;;;;;;;;;5075225;28;19915;-79
2022/11/13 05:20:45;;;;;;;;;;;;;;;;;;5075191;28;20011;-80
2022/11/13 05:23:11;;;;;;;;;;;;;;;;;;5075281;28;19999;-79
2022/11/13 05:25:37;;;;;;;;;;;;;;;;;;5075091;28;19960;-79
2022/11/13 05:28:03;;;;;;;;;;;;;;;;;;5076720;28;19909;-78
2022/11/13 05:30:29;;;;;;;;;;;;;;;;;;5076818;28;19908;-79
2022/11/13 05:32:55;;;;;;;;;;;;;;;;;;5076935;28;19966;-79
2022/11/13 05:35:21;;;;;;;;;;;;;;;;;;5075854;28;19909;-79
2022/11/13 05:37:47;;;;;;;;;;;;;;;;;;5075204;28;19909;-78
2022/11/13 05:40:13;;;;;;;;;;;;;;;;;;5074469;28;19912;-78
2022/11/13 05:42:38;;;;;;;;;;;;;;;;;;5074644;28;19909;-79
2022/11/13 05:45:04;;;;;;;;;;;;;;;;;;5075521;28;19952;-78
2022/11/13 05:47:30;;;;;;;;;;;;;;;;;;5074264;28;19914;-77
2022/11/13 05:49:56;;;;;;;;;;;;;;;;;;5075736;28;19923;-77
2022/11/13 05:52:22;;;;;;;;;;;;;;;;;;5074455;28;19931;-78
2022/11/13 05:54:48;;;;;;;;;;;;;;;;;;5075421;28;19908;-78
2022/11/13 05:57:14;;;;;;;;;;;;;;;;;;5075395;28;19916;-77
2022/11/13 05:59:40;;;;;;;;;;;;;;;;;;5074415;28;20360;-77
2022/11/13 06:02:05;;;;;;;;;;;;;;;;;;5075542;28;20288;-78
2022/11/13 06:04:31;;;;;;;;;;;;;;;;;;5075273;28;19915;-77
2022/11/13 06:06:57;;;;;;;;;;;;;;;;;;5074004;28;19931;-77
2022/11/13 06:09:23;;;;;;;;;;;;;;;;;;5073946;28;19954;-78
2022/11/13 06:11:49;;;;;;;;;;;;;;;;;;5073956;28;19908;-77
2022/11/13 06:14:15;;;;;;;;;;;;;;;;;;5075148;28;19908;-78
2022/11/13 06:16:41;;;;;;;;;;;;;;;;;;5075093;28;19912;-77
2022/11/13 06:19:07;;;;;;;;;;;;;;;;;;5074007;28;20011;-76
2022/11/13 06:21:32;;;;;;;;;;;;;;;;;;5073873;28;19919;-77
2022/11/13 06:23:58;;;;;;;;;;;;;;;;;;5075166;28;19915;-77
2022/11/13 06:26:24;;;;;;;;;;;;;;;;;;5073688;28;19924;-77
2022/11/13 06:28:50;;;;;;;;;;;;;;;;;;5074983;28;19915;-77
2022/11/13 06:31:16;;;;;;;;;;;;;;;;;;5073855;28;20369;-77
2022/11/13 06:33:42;;;;;;;;;;;;;;;;;;5074751;28;19916;-78
2022/11/13 06:36:08;;;;;;;;;;;;;;;;;;5074589;28;19908;-77
2022/11/13 06:38:34;;;;;;;;;;;;;;;;;;5074712;28;19946;-77
2022/11/13 06:41:00;;;;;;;;;;;;;;;;;;5074855;28;19924;-77
2022/11/13 06:43:26;;;;;;;;;;;;;;;;;;5074765;28;19916;-77
2022/11/13 06:45:52;;;;;;;;;;;;;;;;;;5073420;28;19909;-77
2022/11/13 06:48:17;;;;;;;;;;;;;;;;;;5073009;28;20049;-77
2022/11/13 06:50:43;;;;;;;;;;;;;;;;;;5074688;28;19908;-77
2022/11/13 06:53:09;;;;;;;;;;;;;;;;;;5074565;28;20040;-78
2022/11/13 06:55:35;;;;;;;;;;;;;;;;;;5073888;28;19923;-79
2022/11/13 06:58:01;;;;;;;;;;;;;;;;;;5074671;28;19931;-77
2022/11/13 07:00:27;;;;;;;;;;;;;;;;;;5072835;28;20007;-77
2022/11/13 07:02:53;;;;;;;;;;;;;;;;;;5073179;28;20368;-79
2022/11/13 07:05:19;;;;;;;;;;;;;;;;;;5073057;28;20415;-78
2022/11/13 07:07:45;;;;;;;;;;;;;;;;;;5073156;28;20379;-78
2022/11/13 07:10:10;;;;;;;;;;;;;;;;;;5076735;28;19972;-79
2022/11/13 07:12:36;;;;;;;;;;;;;;;;;;5072531;28;20006;-77
2022/11/13 07:15:02;;;;;;;;;;;;;;;;;;5075082;28;19912;-79
2022/11/13 07:17:28;;;;;;;;;;;;;;;;;;5073748;28;19909;-78
2022/11/13 07:19:54;;;;;;;;;;;;;;;;;;5072657;28;19995;-79
2022/11/13 07:22:20;;;;;;;;;;;;;;;;;;5073040;28;20011;-78
2022/11/13 07:24:46;;;;;;;;;;;;;;;;;;5073664;28;19908;-78
2022/11/13 07:27:12;;;;;;;;;;;;;;;;;;5072444;28;19916;-79
2022/11/13 07:29:38;;;;;;;;;;;;;;;;;;5072365;28;19909;-79
2022/11/13 07:32:03;;;;;;;;;;;;;;;;;;5073750;28;19908;-78
2022/11/13 07:34:29;;;;;;;;;;;;;;;;;;5072429;28;19920;-78
2022/11/13 07:36:55;;;;;;;;;;;;;;;;;;5073465;28;20365;-77
2022/11/13 07:39:21;;;;;;;;;;;;;;;;;;5071598;28;19954;-77
2022/11/13 07:41:47;;;;;;;;;;;;;;;;;;5072267;28;19955;-78
2022/11/13 07:44:13;;;;;;;;;;;;;;;;;;5072231;28;19912;-77
2022/11/13 07:46:39;;;;;;;;;;;;;;;;;;5073234;28;19915;-79
2022/11/13 07:49:05;;;;;;;;;;;;;;;;;;5071921;28;20327;-79
2022/11/13 07:51:30;;;;;;;;;;;;;;;;;;5073343;28;19908;-78
2022/11/13 07:53:56;;;;;;;;;;;;;;;;;;5073354;28;20356;-79
2022/11/13 07:56:24;;;;;;;;;;;;;;;;;;5073035;28;19912;-78
2022/11/13 07:58:50;;;;;;;;;;;;;;;;;;5071869;28;19912;-79
2022/11/13 08:01:16;;;;;;;;;;;;;;;;;;5073658;28;19920;-80
2022/11/13 08:03:41;;;;;;;;;;;;;;;;;;5073061;28;20387;-78
2022/11/13 08:06:07;;;;;;;;;;;;;;;;;;5071759;28;19913;-78
2022/11/13 08:08:33;;;;;;;;;;;;;;;;;;5072923;28;19915;-78
2022/11/13 08:10:59;;;;;;;;;;;;;;;;;;5071720;28;19908;-79
2022/11/13 08:13:25;;;;;;;;;;;;;;;;;;5071524;28;19908;-78
2022/11/13 08:15:51;;;;;;;;;;;;;;;;;;5071478;28;19909;-78
2022/11/13 08:18:17;;;;;;;;;;;;;;;;;;5071470;28;19908;-78
2022/11/13 08:20:43;;;;;;;;;;;;;;;;;;5071486;28;20394;-77
2022/11/13 08:23:09;;;;;;;;;;;;;;;;;;5071506;28;19999;-77
2022/11/13 08:25:35;;;;;;;;;;;;;;;;;;5071221;28;19923;-79
2022/11/13 08:28:00;;;;;;;;;;;;;;;;;;5071343;28;20385;-78
2022/11/13 08:30:26;;;;;;;;;;;;;;;;;;5071562;28;19908;-78
2022/11/13 08:32:52;;;;;;;;;;;;;;;;;;5072832;28;19909;-79
2022/11/13 08:35:18;;;;;;;;;;;;;;;;;;5071727;28;20004;-79
2022/11/13 08:37:44;;;;;;;;;;;;;;;;;;5070605;28;19919;-79
2022/11/13 08:40:10;;;;;;;;;;;;;;;;;;5070990;28;19923;-79
2022/11/13 08:42:36;;;;;;;;;;;;;;;;;;5071467;28;19909;-80
2022/11/13 08:45:02;;;;;;;;;;;;;;;;;;5072632;28;19909;-79
2022/11/13 08:47:29;;;;;;;;;;;;;;;;;;5074180;28;19908;-80
2022/11/13 08:49:55;;;;;;;;;;;;;;;;;;5076527;28;19915;-81
2022/11/13 08:52:21;;;;;;;;;;;;;;;;;;5083167;28;19908;-81
2022/11/13 08:54:47;;;;;;;;;;;;;;;;;;5079486;28;19947;-81
2022/11/13 08:57:13;;;;;;;;;;;;;;;;;;5073281;28;19909;-80
2022/11/13 08:59:39;;;;;;;;;;;;;;;;;;5073963;28;19889;-81
2022/11/13 09:02:05;;;;;;;;;;;;;;;;;;5078422;28;19927;-81
2022/11/13 09:04:31;;;;;;;;;;;;;;;;;;5073720;28;20284;-81
2022/11/13 09:06:57;;;;;;;;;;;;;;;;;;5073620;28;19909;-81
2022/11/13 09:09:23;;;;;;;;;;;;;;;;;;5074355;28;20392;-81
2022/11/13 09:11:52;;;;;;;;;;;;;;;;;;5074644;28;19948;-82
2022/11/13 09:14:18;;;;;;;;;;;;;;;;;;5074375;28;20007;-78
2022/11/13 09:16:44;;;;;;;;;;;;;;;;;;5071962;28;20383;-76
2022/11/13 09:19:10;;;;;;;;;;;;;;;;;;5072027;28;19912;-76
2022/11/13 09:21:36;;;;;;;;;;;;;;;;;;5070939;28;20383;-77
2022/11/13 09:24:02;;;;;;;;;;;;;;;;;;5070717;28;19912;-76
2022/11/13 09:26:28;;;;;;;;;;;;;;;;;;5071879;28;19923;-76
2022/11/13 09:28:54;;;;;;;;;;;;;;;;;;5073689;28;20315;-76
2022/11/13 09:31:20;;;;;;;;;;;;;;;;;;5071044;28;19941;-77
2022/11/13 09:33:46;;;;;;;;;;;;;;;;;;5070600;28;19958;-76
2022/11/13 09:36:13;;;;;;;;;;;;;;;;;;5071968;28;19908;-76
2022/11/13 09:38:39;;;;;;;;;;;;;;;;;;5072233;28;19948;-78
2022/11/13 09:41:05;;;;;;;;;;;;;;;;;;5072063;28;19962;-77
2022/11/13 09:43:31;;;;;;;;;;;;;;;;;;5072028;28;19912;-76
2022/11/13 09:45:57;;;;;;;;;;;;;;;;;;5073212;28;20425;-75
2022/11/13 09:48:22;;;;;;;;;;;;;;;;;;5075625;28;19909;-76
2022/11/13 09:50:48;;;;;;;;;;;;;;;;;;5068830;28;19958;-75
2022/11/13 09:53:14;;;;;;;;;;;;;;;;;;5073091;28;19908;-74
2022/11/13 09:55:40;;;;;;;;;;;;;;;;;;5073641;28;19912;-75
2022/11/13 09:58:06;;;;;;;;;;;;;;;;;;5073230;28;19991;-75
2022/11/13 10:00:32;;;;;;;;;;;;;;;;;;5074100;28;19935;-75
2022/11/13 10:02:58;;;;;;;;;;;;;;;;;;5074215;28;19909;-75
2022/11/13 10:05:24;;;;;;;;;;;;;;;;;;5073920;28;19919;-75
2022/11/13 10:07:50;;;;;;;;;;;;;;;;;;5075420;28;19943;-77
2022/11/13 10:10:16;;;;;;;;;;;;;;;;;;5074952;28;20379;-78
2022/11/13 10:12:41;;;;;;;;;;;;;;;;;;5075364;28;19909;-75
2022/11/13 10:15:07;;;;;;;;;;;;;;;;;;5076876;28;19909;-79
2022/11/13 10:17:33;;;;;;;;;;;;;;;;;;5074923;28;19923;-79
2022/11/13 10:19:59;;;;;;;;;;;;;;;;;;5075370;28;19908;-77
2022/11/13 10:22:25;;;;;;;;;;;;;;;;;;5077089;28;19913;-78
2022/11/13 10:24:51;;;;;;;;;;;;;;;;;;5075236;28;19999;-77
2022/11/13 10:27:17;;;;;;;;;;;;;;;;;;5076763;28;19909;-76
2022/11/13 10:29:43;;;;;;;;;;;;;;;;;;5076646;28;19970;-75
2022/11/13 10:32:08;;;;;;;;;;;;;;;;;;5074112;28;20003;-75
2022/11/13 10:34:34;;;;;;;;;;;;;;;;;;5075487;28;20280;-76
2022/11/13 10:37:00;;;;;;;;;;;;;;;;;;5075081;28;19913;-77
2022/11/13 10:39:26;;;;;;;;;;;;;;;;;;5073766;28;20262;-78
2022/11/13 10:41:52;;;;;;;;;;;;;;;;;;5073208;28;19916;-77
2022/11/13 10:44:19;;;;;;;;;;;;;;;;;;5072813;28;20004;-78
2022/11/13 10:46:44;;;;;;;;;;;;;;;;;;5074295;28;19909;-77
2022/11/13 10:49:10;;;;;;;;;;;;;;;;;;5074513;28;20003;-76
2022/11/13 10:51:38;;;;;;;;;;;;;;;;;;5073788;28;19915;-77
2022/11/13 10:54:03;;;;;;;;;;;;;;;;;;5074870;28;19909;-78
2022/11/13 10:56:30;;;;;;;;;;;;;;;;;;5073535;28;20007;-76
2022/11/13 10:58:55;;;;;;;;;;;;;;;;;;5072465;28;19923;-79
2022/11/13 11:01:22;;;;;;;;;;;;;;;;;;5073418;28;19913;-77
2022/11/13 11:03:48;;;;;;;;;;;;;;;;;;5074556;28;19909;-77
2022/11/13 11:06:14;;;;;;;;;;;;;;;;;;5074363;28;19916;-77
2022/11/13 11:08:40;;;;;;;;;;;;;;;;;;5072955;28;19912;-77
2022/11/13 11:13:51;;;;;;;;;;;;;;;;;;5074358;28;20386;-77
2022/11/13 11:16:17;;;;;;;;;;;;;;;;;;5074233;28;20003;-77
2022/11/13 11:18:43;;;;;;;;;;;;;;;;;;5073969;28;19908;-77
2022/11/13 11:21:09;;;;;;;;;;;;;;;;;;5072193;28;20424;-77
2022/11/13 11:23:34;;;;;;;;;;;;;;;;;;5073999;28;19912;-76
2022/11/13 11:26:00;;;;;;;;;;;;;;;;;;5072152;28;20361;-76
2022/11/13 11:28:26;;;;;;;;;;;;;;;;;;5073519;28;19909;-77
2022/11/13 11:30:52;;;;;;;;;;;;;;;;;;5073574;28;19904;-76
2022/11/13 11:33:18;;;;;;;;;;;;;;;;;;5073752;28;19908;-76
2022/11/13 11:35:44;;;;;;;;;;;;;;;;;;5072160;28;20289;-76
2022/11/13 11:38:10;;;;;;;;;;;;;;;;;;5072553;28;20011;-76
2022/11/13 11:40:36;;;;;;;;;;;;;;;;;;5072298;28;20288;-76
2022/11/13 11:43:01;;;;;;;;;;;;;;;;;;5071911;28;19909;-75
2022/11/13 11:45:28;;;;;;;;;;;;;;;;;;5071934;28;19966;-76
2022/11/13 11:47:54;;;;;;;;;;;;;;;;;;5071236;28;20369;-76
2022/11/13 11:50:20;;;;;;;;;;;;;;;;;;5071896;28;19919;-76
2022/11/13 11:52:46;;;;;;;;;;;;;;;;;;5072209;28;19915;-76
2022/11/13 11:55:12;;;;;;;;;;;;;;;;;;5071340;28;19959;-76
2022/11/13 11:57:38;;;;;;;;;;;;;;;;;;5073014;28;19908;-76
2022/11/13 12:00:04;;;;;;;;;;;;;;;;;;5073745;28;20359;-76
2022/11/13 12:02:30;;;;;;;;;;;;;;;;;;5073107;28;19917;-75
2022/11/13 12:04:56;;;;;;;;;;;;;;;;;;5072399;28;20388;-78
2022/11/13 12:07:22;;;;;;;;;;;;;;;;;;5071648;28;19923;-78
2022/11/13 12:09:48;;;;;;;;;;;;;;;;;;5071652;28;20387;-76
2022/11/13 12:12:14;;;;;;;;;;;;;;;;;;5072695;28;19911;-76
2022/11/13 12:14:40;;;;;;;;;;;;;;;;;;5072519;28;19915;-76
2022/11/13 12:17:06;;;;;;;;;;;;;;;;;;5071948;28;19973;-76
2022/11/13 12:19:32;;;;;;;;;;;;;;;;;;5071016;28;19915;-76
2022/11/13 12:21:57;;;;;;;;;;;;;;;;;;5071366;28;20265;-76
2022/11/13 12:24:23;;;;;;;;;;;;;;;;;;5072598;28;19923;-76
2022/11/13 12:26:49;;;;;;;;;;;;;;;;;;5072512;28;19916;-75
2022/11/13 12:29:15;;;;;;;;;;;;;;;;;;5072685;28;19962;-76
2022/11/13 12:31:41;;;;;;;;;;;;;;;;;;5073198;28;19951;-76
2022/11/13 12:34:07;;;;;;;;;;;;;;;;;;5072690;28;19930;-76
2022/11/13 12:36:33;;;;;;;;;;;;;;;;;;5072600;28;19962;-76
2022/11/13 12:38:59;;;;;;;;;;;;;;;;;;5070787;28;19909;-76
2022/11/13 12:41:24;;;;;;;;;;;;;;;;;;5072112;28;20007;-75
2022/11/13 12:43:50;;;;;;;;;;;;;;;;;;5071220;28;19913;-75
2022/11/13 12:46:16;;;;;;;;;;;;;;;;;;5070901;28;20356;-76
2022/11/13 12:48:42;;;;;;;;;;;;;;;;;;5070916;28;19912;-78
2022/11/13 12:51:09;;;;;;;;;;;;;;;;;;5072343;28;19988;-78
2022/11/13 12:53:35;;;;;;;;;;;;;;;;;;5071400;28;19919;-77
2022/11/13 12:56:01;;;;;;;;;;;;;;;;;;5071944;28;19909;-77
2022/11/13 12:58:27;;;;;;;;;;;;;;;;;;5071307;28;20465;-78
2022/11/13 13:00:53;;;;;;;;;;;;;;;;;;5071253;28;20387;-77
2022/11/13 13:03:19;;;;;;;;;;;;;;;;;;5071596;28;19908;-77
2022/11/13 13:05:45;;;;;;;;;;;;;;;;;;5070935;28;19909;-77
2022/11/13 13:08:10;;;;;;;;;;;;;;;;;;5071077;28;19912;-77
2022/11/13 13:10:36;;;;;;;;;;;;;;;;;;5072509;28;19908;-77
2022/11/13 13:13:02;;;;;;;;;;;;;;;;;;5071162;28;19908;-77
2022/11/13 13:15:28;;;;;;;;;;;;;;;;;;5071013;28;19908;-79
2022/11/13 13:17:54;;;;;;;;;;;;;;;;;;5072508;28;19909;-77
2022/11/13 13:20:20;;;;;;;;;;;;;;;;;;5071386;28;20023;-77
2022/11/13 13:22:46;;;;;;;;;;;;;;;;;;5074846;28;20414;-77
2022/11/13 13:25:12;;;;;;;;;;;;;;;;;;5074839;28;19912;-78
2022/11/13 13:27:38;;;;;;;;;;;;;;;;;;5075277;28;19908;-77
2022/11/13 13:30:03;;;;;;;;;;;;;;;;;;5075182;28;19904;-78
2022/11/13 13:32:29;;;;;;;;;;;;;;;;;;5076406;28;19916;-78
2022/11/13 13:34:55;;;;;;;;;;;;;;;;;;5075893;28;19909;-78
2022/11/13 13:37:21;;;;;;;;;;;;;;;;;;5074921;28;19999;-77
2022/11/13 13:39:47;;;;;;;;;;;;;;;;;;5076091;28;19912;-77
2022/11/13 13:42:13;;;;;;;;;;;;;;;;;;5075817;28;19919;-78
2022/11/13 13:44:39;;;;;;;;;;;;;;;;;;5075895;28;19916;-77
2022/11/13 13:47:05;;;;;;;;;;;;;;;;;;5074675;28;19915;-77
2022/11/13 13:49:31;;;;;;;;;;;;;;;;;;5074461;28;19958;-78
2022/11/13 13:51:57;;;;;;;;;;;;;;;;;;5074790;28;19962;-77
2022/11/13 13:54:23;;;;;;;;;;;;;;;;;;5076115;28;19913;-77
2022/11/13 13:56:49;;;;;;;;;;;;;;;;;;5075820;28;19979;-78
2022/11/13 13:59:15;;;;;;;;;;;;;;;;;;5074154;28;20051;-77
2022/11/13 14:01:41;;;;;;;;;;;;;;;;;;5075428;28;20543;-77
2022/11/13 14:04:07;;;;;;;;;;;;;;;;;;5075543;28;19986;-77
2022/11/13 14:06:33;;;;;;;;;;;;;;;;;;5074185;28;19908;-77
2022/11/13 14:08:59;;;;;;;;;;;;;;;;;;5075436;28;19908;-77
2022/11/13 14:11:28;;;;;;;;;;;;;;;;;;5075621;28;19908;-78
2022/11/13 14:13:54;;;;;;;;;;;;;;;;;;5075825;28;19908;-77
2022/11/13 14:16:20;;;;;;;;;;;;;;;;;;5075404;28;19916;-77
2022/11/13 14:18:46;;;;;;;;;;;;;;;;;;5073531;28;19915;-79
2022/11/13 14:21:14;;;;;;;;;;;;;;;;;;5074946;28;20011;-77
2022/11/13 14:23:40;;;;;;;;;;;;;;;;;;5075735;28;19912;-77
2022/11/13 14:26:06;;;;;;;;;;;;;;;;;;5075485;28;19998;-77
2022/11/13 14:28:32;;;;;;;;;;;;;;;;;;5075274;28;20337;-76
2022/11/13 14:30:58;;;;;;;;;;;;;;;;;;5074383;28;19909;-76
2022/11/13 14:33:24;;;;;;;;;;;;;;;;;;5073458;28;20557;-76
2022/11/13 14:35:50;;;;;;;;;;;;;;;;;;5073344;28;19909;-76
2022/11/13 14:38:15;;;;;;;;;;;;;;;;;;5074518;28;20356;-76
2022/11/13 14:40:41;;;;;;;;;;;;;;;;;;5074770;28;19913;-76
2022/11/13 14:43:07;;;;;;;;;;;;;;;;;;5074760;28;20343;-76
2022/11/13 14:45:33;;;;;;;;;;;;;;;;;;5073622;28;19915;-77
2022/11/13 14:47:59;;;;;;;;;;;;;;;;;;5075005;28;19909;-76
2022/11/13 14:50:25;;;;;;;;;;;;;;;;;;5073629;28;19912;-76
2022/11/13 14:52:51;;;;;;;;;;;;;;;;;;5071487;28;19916;-76
2022/11/13 14:55:17;;;;;;;;;;;;;;;;;;5074481;28;19944;-74
2022/11/13 14:57:43;;;;;;;;;;;;;;;;;;5073259;28;19915;-76
2022/11/13 15:00:09;;;;;;;;;;;;;;;;;;5071942;28;19917;-76
2022/11/13 15:02:34;;;;;;;;;;;;;;;;;;5071680;28;19950;-76
2022/11/13 15:05:00;;;;;;;;;;;;;;;;;;5072143;28;19912;-76
2022/11/13 15:07:26;;;;;;;;;;;;;;;;;;5071026;28;19913;-77
2022/11/13 15:09:52;;;;;;;;;;;;;;;;;;5071225;28;19908;-76
2022/11/13 15:12:18;;;;;;;;;;;;;;;;;;5072998;28;19991;-76
2022/11/13 15:14:44;;;;;;;;;;;;;;;;;;5072762;28;19908;-76
2022/11/13 15:17:10;;;;;;;;;;;;;;;;;;5073880;28;19909;-76
2022/11/13 15:19:36;;;;;;;;;;;;;;;;;;5073823;28;20006;-76
2022/11/13 15:22:02;;;;;;;;;;;;;;;;;;5073929;28;19912;-76
2022/11/13 15:24:28;;;;;;;;;;;;;;;;;;5070281;28;19920;-76
2022/11/13 15:26:54;;;;;;;;;;;;;;;;;;5073428;28;19912;-76
2022/11/13 15:29:20;;;;;;;;;;;;;;;;;;5074280;28;19909;-76
2022/11/13 15:31:45;;;;;;;;;;;;;;;;;;5074034;28;20321;-76
2022/11/13 15:34:11;;;;;;;;;;;;;;;;;;5075230;28;19909;-76
2022/11/13 15:36:37;;;;;;;;;;;;;;;;;;5074673;28;19950;-79
2022/11/13 15:39:03;;;;;;;;;;;;;;;;;;5067185;28;20011;-79
2022/11/13 15:41:29;;;;;;;;;;;;;;;;;;5073396;28;20365;-79
2022/11/13 15:43:55;;;;;;;;;;;;;;;;;;5070508;28;19954;-77
2022/11/13 15:46:21;;;;;;;;;;;;;;;;;;5058927;28;20343;-78
2022/11/13 15:48:47;;;;;;;;;;;;;;;;;;5067056;28;19908;-78
2022/11/13 15:51:13;;;;;;;;;;;;;;;;;;5064013;28;19908;-77
2022/11/13 15:53:39;;;;;;;;;;;;;;;;;;5070162;28;19908;-77
2022/11/13 15:56:05;;;;;;;;;;;;;;;;;;5067302;28;20447;-78
2022/11/13 15:58:31;;;;;;;;;;;;;;;;;;5071870;28;19919;-77
2022/11/13 16:00:57;;;;;;;;;;;;;;;;;;5071806;28;19913;-79
2022/11/13 16:03:23;;;;;;;;;;;;;;;;;;5077174;28;19928;-81
2022/11/13 16:05:50;;;;;;;;;;;;;;;;;;5067853;28;19927;-77
2022/11/13 16:08:15;;;;;;;;;;;;;;;;;;5079487;28;19901;-80
2022/11/13 16:10:41;;;;;;;;;;;;;;;;;;5072774;28;20261;-78
2022/11/13 16:13:07;;;;;;;;;;;;;;;;;;5071827;28;19962;-80
2022/11/13 16:15:33;;;;;;;;;;;;;;;;;;5063823;28;19909;-81
2022/11/13 16:20:41;;;;;;;;;;;;;;;;;;4137826;26;19924;-80
2022/11/13 16:23:09;;;;;;;;;;;;;;;;;;5055902;28;20151;-80
2022/11/13 16:25:34;;;;;;;;;;;;;;;;;;5054541;28;19942;-80
2022/11/13 16:28:00;;;;;;;;;;;;;;;;;;5056274;28;19904;-80
2022/11/13 16:30:27;;;;;;;;;;;;;;;;;;5054933;28;19916;-80
2022/11/13 16:32:53;;;;;;;;;;;;;;;;;;5053725;28;19905;-77
2022/11/13 16:35:19;;;;;;;;;;;;;;;;;;5062095;28;19913;-81
2022/11/13 16:37:45;;;;;;;;;;;;;;;;;;5057470;28;19909;-80
2022/11/13 16:40:11;;;;;;;;;;;;;;;;;;5065429;28;19909;-81
2022/11/13 16:42:56;;;;;;;;;;;;;;;;;;5111969;22;20002;-78
2022/11/13 16:45:22;;;;;;;;;;;;;;;;;;5072012;28;19909;-77